createdAt,value
2018-12-06T00:01:52.679Z,5.19
2018-12-06T00:06:55.172Z,5.19
2018-12-06T00:11:58.002Z,5.16
2018-12-06T00:22:13.566Z,5.14
2018-12-06T00:27:16.170Z,5.10
2018-12-06T00:32:18.526Z,5.13
2018-12-06T00:37:21.129Z,5.19
2018-12-06T00:42:23.734Z,5.16
2018-12-06T00:47:26.199Z,5.17
2018-12-06T00:52:28.628Z,5.16
2018-12-06T00:57:31.086Z,5.14
2018-12-06T01:02:33.675Z,5.16
2018-12-06T01:07:36.254Z,5.12
2018-12-06T01:12:38.882Z,5.21
2018-12-06T01:17:41.377Z,5.15
2018-12-06T01:22:44.076Z,5.15
2018-12-06T01:27:46.519Z,5.13
2018-12-06T01:32:48.925Z,5.12
2018-12-06T01:37:51.370Z,5.11
2018-12-06T01:42:53.928Z,5.12
2018-12-06T01:47:56.411Z,5.13
2018-12-06T01:52:58.783Z,5.13
2018-12-06T01:58:01.201Z,5.11
2018-12-06T02:03:03.571Z,5.10
2018-12-06T02:08:06.309Z,5.15
2018-12-06T02:13:08.892Z,5.13
2018-12-06T02:18:11.399Z,5.13
2018-12-06T02:23:13.794Z,5.14
2018-12-06T02:28:16.176Z,5.16
2018-12-06T02:33:19.061Z,5.11
2018-12-06T02:38:21.674Z,5.14
2018-12-06T02:43:24.418Z,5.14
2018-12-06T02:48:27.180Z,5.16
2018-12-06T02:53:29.598Z,5.15
2018-12-06T02:58:32.518Z,5.10
2018-12-06T03:03:35.462Z,5.12
2018-12-06T03:08:38.039Z,5.16
2018-12-06T03:13:40.615Z,5.17
2018-12-06T03:18:42.999Z,5.15
2018-12-06T03:23:46.496Z,5.19
2018-12-06T03:28:49.085Z,5.17
2018-12-06T03:33:51.713Z,5.20
2018-12-06T03:38:54.302Z,5.17
2018-12-06T03:43:56.880Z,5.22
2018-12-06T03:48:59.506Z,5.17
2018-12-06T03:54:01.889Z,5.17
2018-12-06T03:59:04.479Z,5.22
2018-12-06T04:04:06.889Z,5.25
2018-12-06T04:09:09.400Z,5.26
2018-12-06T04:14:11.914Z,5.26
2018-12-06T04:19:14.430Z,5.31
2018-12-06T04:24:17.050Z,5.28
2018-12-06T04:29:19.444Z,5.31
2018-12-06T04:34:21.901Z,5.32
2018-12-06T04:39:25.480Z,5.32
2018-12-06T04:44:28.231Z,5.44
2018-12-06T04:49:30.679Z,5.49
2018-12-06T04:54:33.050Z,5.52
2018-12-06T04:59:35.747Z,5.52
2018-12-06T05:04:38.318Z,5.54
2018-12-06T05:09:40.917Z,5.55
2018-12-06T05:14:43.278Z,5.52
2018-12-06T05:19:45.617Z,5.54
2018-12-06T05:24:48.279Z,5.58
2018-12-06T05:29:50.746Z,5.62
2018-12-06T05:34:53.181Z,5.66
2018-12-06T05:39:55.563Z,5.74
2018-12-06T05:44:57.903Z,5.77
2018-12-06T05:55:13.494Z,5.84
2018-12-06T06:00:16.010Z,5.87
2018-12-06T06:05:18.403Z,5.88
2018-12-06T06:10:21.002Z,5.88
2018-12-06T06:15:24.365Z,5.91
2018-12-06T06:20:26.842Z,5.91
2018-12-06T06:25:29.258Z,5.92
2018-12-06T06:30:31.660Z,5.95
2018-12-06T06:35:34.151Z,5.99
2018-12-06T06:40:36.574Z,6.02
2018-12-06T06:45:40.063Z,6.07
2018-12-06T06:50:42.833Z,6.15
2018-12-06T06:55:45.275Z,6.22
2018-12-06T07:00:47.642Z,6.22
2018-12-06T07:05:50.082Z,6.22
2018-12-06T07:10:52.987Z,6.35
2018-12-06T07:15:56.267Z,6.35
2018-12-06T07:20:58.676Z,6.32
2018-12-06T07:26:01.331Z,6.27
2018-12-06T07:31:03.752Z,6.32
2018-12-06T07:36:07.144Z,6.31
2018-12-06T07:41:09.508Z,6.26
2018-12-06T07:46:11.932Z,6.26
2018-12-06T07:51:14.239Z,6.40
2018-12-06T07:56:17.093Z,6.39
2018-12-06T08:01:19.670Z,6.33
2018-12-06T08:06:22.082Z,6.46
2018-12-06T08:11:24.498Z,6.53
2018-12-06T08:16:27.673Z,6.40
2018-12-06T08:21:31.072Z,6.41
2018-12-06T08:26:37.378Z,6.47
2018-12-06T08:31:40.304Z,6.60
2018-12-06T08:36:42.639Z,6.66
2018-12-06T08:41:49.178Z,6.66
2018-12-06T08:46:53.310Z,6.63
2018-12-06T08:51:55.645Z,6.81
2018-12-06T08:56:58.102Z,6.84
2018-12-06T09:02:00.587Z,6.78
2018-12-06T09:07:04.922Z,6.79
2018-12-06T09:12:07.579Z,6.75
2018-12-06T09:17:14.530Z,6.83
2018-12-06T09:22:16.918Z,6.89
2018-12-06T09:27:19.260Z,6.99
2018-12-06T09:32:21.620Z,6.99
2018-12-06T09:37:28.527Z,6.98
2018-12-06T09:42:30.921Z,7.10
2018-12-06T09:47:37.830Z,6.99
2018-12-06T09:52:40.362Z,7.05
2018-12-06T09:57:42.738Z,7.06
2018-12-06T10:02:49.644Z,7.09
2018-12-06T10:07:52.385Z,7.22
2018-12-06T10:12:54.775Z,7.30
2018-12-06T10:18:01.759Z,7.32
2018-12-06T10:23:04.181Z,7.42
2018-12-06T10:28:06.557Z,7.44
2018-12-06T10:33:13.489Z,7.49
2018-12-06T10:38:15.874Z,7.53
2018-12-06T10:43:20.031Z,7.53
2018-12-06T10:48:22.627Z,7.48
2018-12-06T10:53:24.980Z,7.52
2018-12-06T10:58:27.580Z,7.53
2018-12-06T11:03:32.215Z,7.58
2018-12-06T11:08:34.661Z,7.79
2018-12-06T11:13:38.863Z,7.84
2018-12-06T11:18:44.699Z,7.78
2018-12-06T11:23:47.864Z,7.82
2018-12-06T11:28:54.222Z,7.80
2018-12-06T11:33:58.722Z,7.93
2018-12-06T11:39:01.714Z,7.94
2018-12-06T11:44:04.598Z,8.03
2018-12-06T11:49:07.065Z,8.11
2018-12-06T11:54:09.895Z,8.26
2018-12-06T11:59:12.508Z,8.31
2018-12-06T12:04:15.766Z,8.36
2018-12-06T12:09:18.186Z,8.52
2018-12-06T12:14:20.707Z,8.56
2018-12-06T12:19:23.064Z,8.72
2018-12-06T12:24:25.729Z,8.82
2018-12-06T12:29:28.552Z,8.96
2018-12-06T12:34:30.922Z,8.83
2018-12-06T12:39:35.090Z,8.65
2018-12-06T12:44:38.462Z,8.90
2018-12-06T12:49:41.452Z,8.78
2018-12-06T12:54:43.841Z,8.91
2018-12-06T12:59:46.710Z,9.11
2018-12-06T13:04:49.189Z,9.11
2018-12-06T13:09:51.758Z,8.93
2018-12-06T13:14:54.382Z,8.87
2018-12-06T13:19:57.382Z,8.82
2018-12-06T13:24:59.753Z,8.79
2018-12-06T13:30:02.194Z,8.76
2018-12-06T13:35:05.134Z,8.80
2018-12-06T13:40:14.319Z,8.75
2018-12-06T13:45:17.043Z,8.78
2018-12-06T13:50:19.852Z,8.69
2018-12-06T13:55:26.687Z,8.72
2018-12-06T14:00:29.133Z,8.76
2018-12-06T14:05:32.486Z,8.86
2018-12-06T14:10:35.038Z,8.99
2018-12-06T14:15:38.730Z,8.98
2018-12-06T14:20:46.662Z,9.27
2018-12-06T14:25:49.138Z,9.11
2018-12-06T14:30:51.963Z,8.91
2018-12-06T14:35:54.614Z,8.92
2018-12-06T14:40:57.066Z,8.95
2018-12-06T14:45:59.634Z,8.96
2018-12-06T14:51:02.522Z,9.01
2018-12-06T14:56:05.878Z,9.28
2018-12-06T15:01:08.276Z,9.08
2018-12-06T15:06:10.726Z,9.03
2018-12-06T15:11:13.396Z,8.93
2018-12-06T15:16:15.786Z,8.95
2018-12-06T15:21:18.430Z,8.80
2018-12-06T15:26:20.881Z,8.82
2018-12-06T15:31:23.242Z,8.73
2018-12-06T15:36:25.695Z,8.62
2018-12-06T15:41:28.191Z,8.67
2018-12-06T15:46:31.737Z,8.68
2018-12-06T15:51:34.303Z,8.92
2018-12-06T15:56:36.747Z,8.74
2018-12-06T16:01:39.254Z,8.69
2018-12-06T16:06:42.628Z,8.64
2018-12-06T16:11:48.739Z,8.90
2018-12-06T16:16:51.213Z,8.89
2018-12-06T16:21:58.803Z,8.75
2018-12-06T16:27:01.292Z,8.86
2018-12-06T16:32:04.859Z,9.01
2018-12-06T16:37:07.418Z,9.04
2018-12-06T16:42:11.917Z,9.22
2018-12-06T16:47:20.951Z,9.27
2018-12-06T16:52:23.551Z,9.40
2018-12-06T16:57:25.959Z,9.37
2018-12-06T17:02:28.357Z,9.41
2018-12-06T17:07:30.808Z,9.51
2018-12-06T17:12:33.266Z,9.51
2018-12-06T17:17:35.755Z,9.69
2018-12-06T17:22:39.164Z,9.67
2018-12-06T17:27:43.877Z,9.70
2018-12-06T17:32:46.670Z,9.76
2018-12-06T17:37:49.142Z,9.72
2018-12-06T17:42:51.638Z,9.81
2018-12-06T17:47:54.048Z,9.79
2018-12-06T17:52:57.620Z,9.84
2018-12-06T17:58:00.076Z,9.81
2018-12-06T18:03:02.951Z,9.77
2018-12-06T18:08:05.493Z,9.73
2018-12-06T18:13:07.992Z,9.75
2018-12-06T18:18:10.408Z,9.77
2018-12-06T18:23:12.911Z,9.70
2018-12-06T18:28:15.466Z,9.71
2018-12-06T18:33:17.988Z,9.78
2018-12-06T18:38:20.747Z,9.73
2018-12-06T18:43:23.339Z,9.80
2018-12-06T18:48:26.124Z,9.77
2018-12-06T18:53:28.698Z,9.90
2018-12-06T18:58:34.398Z,9.93
2018-12-06T19:03:36.131Z,9.91
2018-12-06T19:08:38.607Z,10.01
2018-12-06T19:13:41.005Z,9.96
2018-12-06T19:18:43.467Z,9.94
2018-12-06T19:23:45.834Z,9.99
2018-12-06T19:28:48.372Z,10.01
2018-12-06T19:33:51.005Z,10.06
2018-12-06T19:38:53.401Z,10.10
2018-12-06T19:43:55.726Z,10.19
2018-12-06T19:48:58.155Z,10.15
2018-12-06T19:54:00.788Z,10.22
2018-12-06T19:59:03.468Z,10.10
2018-12-06T20:04:05.889Z,10.23
2018-12-06T20:09:09.466Z,10.30
2018-12-06T20:14:12.425Z,10.17
2018-12-06T20:19:21.505Z,10.20
2018-12-06T20:24:25.320Z,10.42
2018-12-06T20:29:27.712Z,10.42
2018-12-06T20:34:30.587Z,10.55
2018-12-06T20:39:33.014Z,10.45
2018-12-06T20:44:35.427Z,10.45
2018-12-06T20:49:37.836Z,10.50
2018-12-06T20:54:40.257Z,10.47
2018-12-06T20:59:43.313Z,10.60
2018-12-06T21:04:46.076Z,10.75
2018-12-06T21:09:48.900Z,10.71
2018-12-06T21:14:51.415Z,10.67
2018-12-06T21:19:54.104Z,10.86
2018-12-06T21:24:56.661Z,10.87
2018-12-06T21:29:59.618Z,10.68
2018-12-06T21:35:03.434Z,10.68
2018-12-06T21:40:06.626Z,10.69
2018-12-06T21:45:09.112Z,10.79
2018-12-06T21:50:11.694Z,10.68
2018-12-06T21:55:14.106Z,10.89
2018-12-06T22:00:16.677Z,10.75
2018-12-06T22:05:19.044Z,10.77
2018-12-06T22:10:21.561Z,10.75
2018-12-06T22:15:23.963Z,10.83
2018-12-06T22:20:26.525Z,10.82
2018-12-06T22:25:28.952Z,10.77
2018-12-06T22:30:31.476Z,10.83
2018-12-06T22:35:34.490Z,10.82
2018-12-06T22:40:37.151Z,10.85
2018-12-06T22:45:56.890Z,10.80
2018-12-06T22:50:59.316Z,10.77
2018-12-06T22:56:01.806Z,10.81
2018-12-06T23:01:08.379Z,10.75
2018-12-06T23:06:10.806Z,10.75
2018-12-06T23:11:13.329Z,10.80
2018-12-06T23:16:15.808Z,10.79
2018-12-06T23:21:18.208Z,10.82
2018-12-06T23:26:20.927Z,10.85
2018-12-06T23:31:23.319Z,10.76
2018-12-06T23:36:26.098Z,10.80
2018-12-06T23:41:28.486Z,10.85
2018-12-06T23:46:30.870Z,10.82
2018-12-06T23:51:37.771Z,10.82
2018-12-06T23:56:40.141Z,10.83
